sensor_id;sensor_type;location;lat;lon;timestamp;noise_LAeq;noise_LA_min;noise_LA_max;noise_LA01;noise_LA95
52872;Laerm;40124;52.198;9.902;2023-04-25T00:00:28;41.05;37.52;43.81;;
52872;Laerm;40124;52.198;9.902;2023-04-25T00:02:54;53.65;37.12;72.38;;
52872;Laerm;40124;52.198;9.902;2023-04-25T00:05:21;41.07;37.12;44.07;;
52872;Laerm;40124;52.198;9.902;2023-04-25T00:07:47;61.13;36.69;81.82;;
52872;Laerm;40124;52.198;9.902;2023-04-25T00:10:13;41.87;36.69;53.86;;
52872;Laerm;40124;52.198;9.902;2023-04-25T00:12:38;40.34;37.32;45.48;;
52872;Laerm;40124;52.198;9.902;2023-04-25T00:15:04;40.88;37.52;44.42;;
52872;Laerm;40124;52.198;9.902;2023-04-25T00:17:29;40.66;36.91;43.14;;
52872;Laerm;40124;52.198;9.902;2023-04-25T00:19:54;41.43;37.53;44.03;;
52872;Laerm;40124;52.198;9.902;2023-04-25T00:22:20;41.29;38.05;43.68;;
52872;Laerm;40124;52.198;9.902;2023-04-25T00:24:45;40.62;35.59;43.94;;
52872;Laerm;40124;52.198;9.902;2023-04-25T00:27:10;42.65;37.70;50.98;;
52872;Laerm;40124;52.198;9.902;2023-04-25T00:29:35;41.22;36.69;43.09;;
52872;Laerm;40124;52.198;9.902;2023-04-25T00:32:01;40.76;37.12;43.72;;
52872;Laerm;40124;52.198;9.902;2023-04-25T00:34:26;56.64;37.70;77.16;;
52872;Laerm;40124;52.198;9.902;2023-04-25T00:36:51;40.93;36.45;43.72;;
52872;Laerm;40124;52.198;9.902;2023-04-25T00:39:16;40.21;35.94;43.19;;
52872;Laerm;40124;52.198;9.902;2023-04-25T00:41:41;40.06;34.69;44.97;;
52872;Laerm;40124;52.198;9.902;2023-04-25T00:44:08;40.24;35.66;44.90;;
52872;Laerm;40124;52.198;9.902;2023-04-25T00:46:34;40.21;36.45;42.76;;
52872;Laerm;40124;52.198;9.902;2023-04-25T00:49:00;45.62;36.91;62.40;;
52872;Laerm;40124;52.198;9.902;2023-04-25T00:51:26;42.47;38.05;51.30;;
52872;Laerm;40124;52.198;9.902;2023-04-25T00:53:51;60.74;37.32;82.47;;
52872;Laerm;40124;52.198;9.902;2023-04-25T00:56:16;62.24;37.32;80.44;;
52872;Laerm;40124;52.198;9.902;2023-04-25T00:58:42;57.40;39.34;77.15;;
52872;Laerm;40124;52.198;9.902;2023-04-25T01:01:08;61.63;39.81;80.65;;
52872;Laerm;40124;52.198;9.902;2023-04-25T01:03:33;41.66;37.70;46.45;;
52872;Laerm;40124;52.198;9.902;2023-04-25T01:06:01;60.57;37.52;82.50;;
52872;Laerm;40124;52.198;9.902;2023-04-25T01:08:26;60.02;38.05;79.93;;
52872;Laerm;40124;52.198;9.902;2023-04-25T01:10:51;40.91;36.91;43.81;;
52872;Laerm;40124;52.198;9.902;2023-04-25T01:13:17;41.10;37.70;45.86;;
52872;Laerm;40124;52.198;9.902;2023-04-25T01:15:42;61.50;38.52;80.17;;
52872;Laerm;40124;52.198;9.902;2023-04-25T01:18:07;43.97;38.67;55.46;;
52872;Laerm;40124;52.198;9.902;2023-04-25T01:20:32;62.25;38.21;83.42;;
52872;Laerm;40124;52.198;9.902;2023-04-25T01:22:58;62.07;38.81;80.72;;
52872;Laerm;40124;52.198;9.902;2023-04-25T01:25:23;56.22;39.21;74.57;;
52872;Laerm;40124;52.198;9.902;2023-04-25T01:27:49;42.68;38.67;55.72;;
52872;Laerm;40124;52.198;9.902;2023-04-25T01:30:14;41.31;38.21;43.72;;
52872;Laerm;40124;52.198;9.902;2023-04-25T01:32:40;41.06;37.52;45.94;;
52872;Laerm;40124;52.198;9.902;2023-04-25T01:35:06;42.44;39.81;44.31;;
52872;Laerm;40124;52.198;9.902;2023-04-25T01:37:34;57.11;38.02;75.29;;
52872;Laerm;40124;52.198;9.902;2023-04-25T01:40:00;52.08;38.37;70.94;;
52872;Laerm;40124;52.198;9.902;2023-04-25T01:42:25;42.93;37.70;47.36;;
52872;Laerm;40124;52.198;9.902;2023-04-25T01:44:50;60.67;38.52;79.28;;
52872;Laerm;40124;52.198;9.902;2023-04-25T01:47:16;40.93;37.52;42.93;;
52872;Laerm;40124;52.198;9.902;2023-04-25T01:49:41;59.18;37.70;77.69;;
52872;Laerm;40124;52.198;9.902;2023-04-25T01:52:06;41.35;37.12;46.62;;
52872;Laerm;40124;52.198;9.902;2023-04-25T01:54:31;59.58;36.91;80.68;;
52872;Laerm;40124;52.198;9.902;2023-04-25T01:56:57;41.28;36.45;50.34;;
52872;Laerm;40124;52.198;9.902;2023-04-25T01:59:22;41.63;37.32;47.03;;
52872;Laerm;40124;52.198;9.902;2023-04-25T02:01:47;40.65;37.12;53.18;;
52872;Laerm;40124;52.198;9.902;2023-04-25T02:04:12;40.43;36.69;43.09;;
52872;Laerm;40124;52.198;9.902;2023-04-25T02:06:37;57.57;37.52;78.01;;
52872;Laerm;40124;52.198;9.902;2023-04-25T02:09:03;62.13;37.12;78.43;;
52872;Laerm;40124;52.198;9.902;2023-04-25T02:11:28;62.02;39.81;80.65;;
52872;Laerm;40124;52.198;9.902;2023-04-25T02:13:53;41.18;37.32;43.90;;
52872;Laerm;40124;52.198;9.902;2023-04-25T02:16:18;56.39;36.69;76.02;;
52872;Laerm;40124;52.198;9.902;2023-04-25T02:18:43;56.36;36.20;75.98;;
52872;Laerm;40124;52.198;9.902;2023-04-25T02:21:09;57.62;37.52;77.81;;
52872;Laerm;40124;52.198;9.902;2023-04-25T02:23:35;55.05;36.91;74.08;;
52872;Laerm;40124;52.198;9.902;2023-04-25T02:26:00;44.22;37.88;59.26;;
52872;Laerm;40124;52.198;9.902;2023-04-25T02:28:25;65.53;36.91;85.87;;
52872;Laerm;40124;52.198;9.902;2023-04-25T02:30:51;64.93;37.70;82.64;;
52872;Laerm;40124;52.198;9.902;2023-04-25T02:33:16;66.88;38.37;86.71;;
52872;Laerm;40124;52.198;9.902;2023-04-25T02:35:41;57.68;38.67;76.80;;
52872;Laerm;40124;52.198;9.902;2023-04-25T02:38:07;65.93;38.95;84.47;;
52872;Laerm;40124;52.198;9.902;2023-04-25T02:40:32;64.80;38.05;87.26;;
52872;Laerm;40124;52.198;9.902;2023-04-25T02:42:57;67.94;39.70;84.75;;
52872;Laerm;40124;52.198;9.902;2023-04-25T02:45:22;42.13;38.52;51.51;;
52872;Laerm;40124;52.198;9.902;2023-04-25T02:47:47;58.09;38.21;78.83;;
52872;Laerm;40124;52.198;9.902;2023-04-25T02:50:12;64.50;40.03;81.49;;
52872;Laerm;40124;52.198;9.902;2023-04-25T02:52:38;65.83;40.23;86.17;;
52872;Laerm;40124;52.198;9.902;2023-04-25T02:55:03;65.03;39.21;80.43;;
52872;Laerm;40124;52.198;9.902;2023-04-25T02:57:28;67.38;38.05;87.67;;
52872;Laerm;40124;52.198;9.902;2023-04-25T02:59:53;62.35;39.34;78.79;;
52872;Laerm;40124;52.198;9.902;2023-04-25T03:02:18;62.37;39.81;80.19;;
52872;Laerm;40124;52.198;9.902;2023-04-25T03:04:43;62.65;42.65;78.80;;
52872;Laerm;40124;52.198;9.902;2023-04-25T03:07:09;70.24;43.19;90.48;;
52872;Laerm;40124;52.198;9.902;2023-04-25T03:09:34;68.84;43.72;84.70;;
52872;Laerm;40124;52.198;9.902;2023-04-25T03:12:00;66.34;43.09;81.97;;
52872;Laerm;40124;52.198;9.902;2023-04-25T03:14:25;68.43;43.49;84.88;;
52872;Laerm;40124;52.198;9.902;2023-04-25T03:16:50;66.91;42.29;83.27;;
52872;Laerm;40124;52.198;9.902;2023-04-25T03:19:15;67.49;42.29;83.33;;
52872;Laerm;40124;52.198;9.902;2023-04-25T03:21:43;68.00;43.94;81.33;;
52872;Laerm;40124;52.198;9.902;2023-04-25T03:24:09;69.72;43.19;82.10;;
52872;Laerm;40124;52.198;9.902;2023-04-25T03:26:35;67.61;43.04;83.38;;
52872;Laerm;40124;52.198;9.902;2023-04-25T03:29:02;68.30;43.44;81.22;;
52872;Laerm;40124;52.198;9.902;2023-04-25T03:31:28;67.63;42.82;81.57;;
52872;Laerm;40124;52.198;9.902;2023-04-25T03:33:53;69.41;43.58;81.08;;
52872;Laerm;40124;52.198;9.902;2023-04-25T03:36:18;70.57;43.19;86.28;;
52872;Laerm;40124;52.198;9.902;2023-04-25T03:38:43;69.30;42.93;82.80;;
52872;Laerm;40124;52.198;9.902;2023-04-25T03:41:08;72.35;43.58;87.56;;
52872;Laerm;40124;52.198;9.902;2023-04-25T03:43:33;70.02;43.19;83.02;;
52872;Laerm;40124;52.198;9.902;2023-04-25T03:45:58;69.64;44.65;83.83;;
52872;Laerm;40124;52.198;9.902;2023-04-25T03:48:24;73.70;49.70;85.29;;
52872;Laerm;40124;52.198;9.902;2023-04-25T03:50:50;66.31;41.06;81.44;;
52872;Laerm;40124;52.198;9.902;2023-04-25T03:53:16;68.74;43.99;83.05;;
52872;Laerm;40124;52.198;9.902;2023-04-25T03:55:41;71.12;46.18;83.37;;
52872;Laerm;40124;52.198;9.902;2023-04-25T03:58:06;68.24;42.22;81.24;;
52872;Laerm;40124;52.198;9.902;2023-04-25T04:00:33;72.61;44.03;90.40;;
52872;Laerm;40124;52.198;9.902;2023-04-25T04:02:58;69.35;42.69;82.53;;
52872;Laerm;40124;52.198;9.902;2023-04-25T04:05:23;68.55;41.75;84.64;;
52872;Laerm;40124;52.198;9.902;2023-04-25T04:07:48;68.20;42.47;81.04;;
52872;Laerm;40124;52.198;9.902;2023-04-25T04:10:13;70.05;45.83;82.87;;
52872;Laerm;40124;52.198;9.902;2023-04-25T04:12:39;71.80;43.34;82.82;;
52872;Laerm;40124;52.198;9.902;2023-04-25T04:15:04;72.84;52.33;83.79;;
52872;Laerm;40124;52.198;9.902;2023-04-25T04:17:30;72.98;46.84;86.46;;
52872;Laerm;40124;52.198;9.902;2023-04-25T04:19:55;72.42;46.91;88.65;;
52872;Laerm;40124;52.198;9.902;2023-04-25T04:22:21;73.51;48.71;89.30;;
52872;Laerm;40124;52.198;9.902;2023-04-25T04:24:47;75.44;53.71;92.00;;
52872;Laerm;40124;52.198;9.902;2023-04-25T04:27:12;74.91;51.97;87.14;;
52872;Laerm;40124;52.198;9.902;2023-04-25T04:29:37;72.25;43.14;84.39;;
52872;Laerm;40124;52.198;9.902;2023-04-25T04:32:03;71.72;50.08;82.99;;
52872;Laerm;40124;52.198;9.902;2023-04-25T04:34:28;71.22;46.93;82.83;;
52872;Laerm;40124;52.198;9.902;2023-04-25T04:36:53;72.64;44.94;85.20;;
52872;Laerm;40124;52.198;9.902;2023-04-25T04:39:20;72.12;45.96;88.14;;
52872;Laerm;40124;52.198;9.902;2023-04-25T04:41:45;75.34;55.43;87.03;;
52872;Laerm;40124;52.198;9.902;2023-04-25T04:44:10;72.92;52.92;86.07;;
52872;Laerm;40124;52.198;9.902;2023-04-25T04:46:35;71.68;43.94;83.10;;
52872;Laerm;40124;52.198;9.902;2023-04-25T04:49:07;72.78;44.97;86.91;;
52872;Laerm;40124;52.198;9.902;2023-04-25T04:51:32;69.94;45.04;82.29;;
52872;Laerm;40124;52.198;9.902;2023-04-25T04:53:58;71.79;50.45;81.18;;
52872;Laerm;40124;52.198;9.902;2023-04-25T04:56:27;72.86;51.69;87.44;;
52872;Laerm;40124;52.198;9.902;2023-04-25T04:58:53;74.17;45.39;86.58;;
52872;Laerm;40124;52.198;9.902;2023-04-25T05:01:18;72.91;47.34;85.99;;
52872;Laerm;40124;52.198;9.902;2023-04-25T05:03:43;73.73;51.36;88.13;;
52872;Laerm;40124;52.198;9.902;2023-04-25T05:06:08;72.72;50.25;85.28;;
52872;Laerm;40124;52.198;9.902;2023-04-25T05:08:34;72.68;51.19;85.18;;
52872;Laerm;40124;52.198;9.902;2023-04-25T05:10:59;72.85;50.88;84.95;;
52872;Laerm;40124;52.198;9.902;2023-04-25T05:13:24;71.50;49.73;82.17;;
52872;Laerm;40124;52.198;9.902;2023-04-25T05:15:49;73.76;53.74;86.44;;
52872;Laerm;40124;52.198;9.902;2023-04-25T05:18:14;74.06;55.48;84.01;;
52872;Laerm;40124;52.198;9.902;2023-04-25T05:20:39;74.82;55.71;83.50;;
52872;Laerm;40124;52.198;9.902;2023-04-25T05:23:05;72.37;54.34;81.30;;
52872;Laerm;40124;52.198;9.902;2023-04-25T05:25:30;72.98;49.98;86.75;;
52872;Laerm;40124;52.198;9.902;2023-04-25T05:27:55;74.11;54.96;95.61;;
52872;Laerm;40124;52.198;9.902;2023-04-25T05:30:21;72.02;54.84;82.08;;
52872;Laerm;40124;52.198;9.902;2023-04-25T05:32:46;73.23;45.11;84.02;;
52872;Laerm;40124;52.198;9.902;2023-04-25T05:35:12;74.93;52.87;89.19;;
52872;Laerm;40124;52.198;9.902;2023-04-25T05:37:37;73.63;50.60;82.91;;
52872;Laerm;40124;52.198;9.902;2023-04-25T05:40:02;73.10;52.34;85.48;;
52872;Laerm;40124;52.198;9.902;2023-04-25T05:42:31;73.60;57.19;85.53;;
52872;Laerm;40124;52.198;9.902;2023-04-25T05:44:56;72.20;47.12;82.21;;
52872;Laerm;40124;52.198;9.902;2023-04-25T05:47:22;72.25;51.69;81.42;;
52872;Laerm;40124;52.198;9.902;2023-04-25T05:49:47;74.07;49.77;85.83;;
52872;Laerm;40124;52.198;9.902;2023-04-25T05:52:12;73.81;50.37;84.26;;
52872;Laerm;40124;52.198;9.902;2023-04-25T05:54:37;71.84;50.13;86.49;;
52872;Laerm;40124;52.198;9.902;2023-04-25T05:57:02;71.59;49.02;83.34;;
52872;Laerm;40124;52.198;9.902;2023-04-25T05:59:27;71.20;43.09;87.40;;
52872;Laerm;40124;52.198;9.902;2023-04-25T06:01:53;71.01;45.04;83.27;;
52872;Laerm;40124;52.198;9.902;2023-04-25T06:04:19;70.74;51.13;81.81;;
52872;Laerm;40124;52.198;9.902;2023-04-25T06:06:46;69.15;49.84;81.04;;
52872;Laerm;40124;52.198;9.902;2023-04-25T06:09:11;70.16;45.63;83.89;;
52872;Laerm;40124;52.198;9.902;2023-04-25T06:11:37;69.30;42.82;81.39;;
52872;Laerm;40124;52.198;9.902;2023-04-25T06:14:02;71.80;53.47;82.99;;
52872;Laerm;40124;52.198;9.902;2023-04-25T06:16:27;71.06;46.73;85.78;;
52872;Laerm;40124;52.198;9.902;2023-04-25T06:18:52;70.36;44.69;80.51;;
52872;Laerm;40124;52.198;9.902;2023-04-25T06:21:18;71.31;50.53;87.99;;
52872;Laerm;40124;52.198;9.902;2023-04-25T06:23:43;70.15;44.19;86.03;;
52872;Laerm;40124;52.198;9.902;2023-04-25T06:26:08;70.03;45.36;82.89;;
52872;Laerm;40124;52.198;9.902;2023-04-25T06:28:33;69.02;47.54;81.56;;
52872;Laerm;40124;52.198;9.902;2023-04-25T06:30:58;68.57;43.34;83.67;;
52872;Laerm;40124;52.198;9.902;2023-04-25T06:33:23;69.28;43.04;86.96;;
52872;Laerm;40124;52.198;9.902;2023-04-25T06:35:49;69.25;49.76;84.65;;
52872;Laerm;40124;52.198;9.902;2023-04-25T06:38:15;69.59;49.91;79.70;;
52872;Laerm;40124;52.198;9.902;2023-04-25T06:40:40;73.01;46.07;89.36;;
52872;Laerm;40124;52.198;9.902;2023-04-25T06:43:05;71.31;46.23;87.38;;
52872;Laerm;40124;52.198;9.902;2023-04-25T06:45:30;67.85;43.49;81.00;;
52872;Laerm;40124;52.198;9.902;2023-04-25T06:47:56;68.84;47.40;83.22;;
52872;Laerm;40124;52.198;9.902;2023-04-25T06:50:21;72.60;49.85;85.61;;
52872;Laerm;40124;52.198;9.902;2023-04-25T06:52:46;70.66;50.89;83.10;;
52872;Laerm;40124;52.198;9.902;2023-04-25T06:55:11;69.68;47.96;82.23;;
52872;Laerm;40124;52.198;9.902;2023-04-25T06:57:36;68.59;45.07;79.88;;
52872;Laerm;40124;52.198;9.902;2023-04-25T07:00:02;67.74;44.76;81.06;;
52872;Laerm;40124;52.198;9.902;2023-04-25T07:02:30;69.77;42.71;85.06;;
52872;Laerm;40124;52.198;9.902;2023-04-25T07:04:55;67.76;42.59;79.08;;
52872;Laerm;40124;52.198;9.902;2023-04-25T07:07:24;70.07;47.04;83.63;;
52872;Laerm;40124;52.198;9.902;2023-04-25T07:09:49;68.50;47.91;81.17;;
52872;Laerm;40124;52.198;9.902;2023-04-25T07:12:14;66.70;47.81;80.93;;
52872;Laerm;40124;52.198;9.902;2023-04-25T07:14:40;69.80;48.81;85.33;;
52872;Laerm;40124;52.198;9.902;2023-04-25T07:17:05;70.05;44.51;83.77;;
52872;Laerm;40124;52.198;9.902;2023-04-25T07:19:31;71.54;51.19;83.84;;
52872;Laerm;40124;52.198;9.902;2023-04-25T07:21:57;72.13;44.19;89.75;;
52872;Laerm;40124;52.198;9.902;2023-04-25T07:24:22;68.90;44.39;87.05;;
52872;Laerm;40124;52.198;9.902;2023-04-25T07:26:47;70.30;44.83;84.89;;
52872;Laerm;40124;52.198;9.902;2023-04-25T07:29:12;70.21;45.11;84.80;;
52872;Laerm;40124;52.198;9.902;2023-04-25T07:31:37;68.01;49.21;81.96;;
52872;Laerm;40124;52.198;9.902;2023-04-25T07:34:03;69.66;47.83;84.05;;
52872;Laerm;40124;52.198;9.902;2023-04-25T07:36:28;68.67;46.07;81.61;;
52872;Laerm;40124;52.198;9.902;2023-04-25T07:38:53;71.26;45.63;85.00;;
52872;Laerm;40124;52.198;9.902;2023-04-25T07:41:18;72.32;45.77;87.67;;
52872;Laerm;40124;52.198;9.902;2023-04-25T07:43:43;69.55;44.39;88.37;;
52872;Laerm;40124;52.198;9.902;2023-04-25T07:46:08;66.39;45.39;80.06;;
52872;Laerm;40124;52.198;9.902;2023-04-25T07:48:34;69.35;44.65;83.04;;
52872;Laerm;40124;52.198;9.902;2023-04-25T07:50:59;67.20;45.30;78.46;;
52872;Laerm;40124;52.198;9.902;2023-04-25T07:53:24;67.67;43.90;83.05;;
52872;Laerm;40124;52.198;9.902;2023-04-25T07:55:50;69.84;44.97;84.80;;
52872;Laerm;40124;52.198;9.902;2023-04-25T07:58:15;67.54;46.07;83.71;;
52872;Laerm;40124;52.198;9.902;2023-04-25T08:00:41;69.99;50.25;83.62;;
52872;Laerm;40124;52.198;9.902;2023-04-25T08:03:07;66.89;45.63;83.13;;
52872;Laerm;40124;52.198;9.902;2023-04-25T08:05:32;68.66;45.75;84.64;;
52872;Laerm;40124;52.198;9.902;2023-04-25T08:07:57;68.81;44.47;79.98;;
52872;Laerm;40124;52.198;9.902;2023-04-25T08:10:22;69.61;42.76;84.60;;
52872;Laerm;40124;52.198;9.902;2023-04-25T08:12:48;73.40;46.97;89.53;;
52872;Laerm;40124;52.198;9.902;2023-04-25T08:15:13;70.92;47.08;85.79;;
52872;Laerm;40124;52.198;9.902;2023-04-25T08:17:38;69.46;44.82;85.99;;
52872;Laerm;40124;52.198;9.902;2023-04-25T08:20:03;69.39;43.68;81.65;;
52872;Laerm;40124;52.198;9.902;2023-04-25T08:22:30;69.43;46.73;82.61;;
52872;Laerm;40124;52.198;9.902;2023-04-25T08:24:56;66.51;44.62;78.77;;
52872;Laerm;40124;52.198;9.902;2023-04-25T08:27:21;70.88;49.30;84.66;;
52872;Laerm;40124;52.198;9.902;2023-04-25T08:29:46;68.23;43.68;79.35;;
52872;Laerm;40124;52.198;9.902;2023-04-25T08:32:12;71.55;46.73;86.18;;
52872;Laerm;40124;52.198;9.902;2023-04-25T08:34:37;67.10;44.47;78.45;;
52872;Laerm;40124;52.198;9.902;2023-04-25T08:37:04;68.23;46.50;82.19;;
52872;Laerm;40124;52.198;9.902;2023-04-25T08:39:30;68.09;46.73;82.26;;
52872;Laerm;40124;52.198;9.902;2023-04-25T08:41:55;66.80;43.29;80.19;;
52872;Laerm;40124;52.198;9.902;2023-04-25T08:44:21;67.85;44.62;82.01;;
52872;Laerm;40124;52.198;9.902;2023-04-25T08:46:47;70.42;49.02;83.09;;
52872;Laerm;40124;52.198;9.902;2023-04-25T08:49:14;69.77;42.76;88.42;;
52872;Laerm;40124;52.198;9.902;2023-04-25T08:51:45;70.27;45.04;86.71;;
52872;Laerm;40124;52.198;9.902;2023-04-25T08:54:15;71.53;44.23;89.36;;
52872;Laerm;40124;52.198;9.902;2023-04-25T08:56:41;73.38;43.49;91.98;;
52872;Laerm;40124;52.198;9.902;2023-04-25T08:59:08;69.88;43.86;86.25;;
52872;Laerm;40124;52.198;9.902;2023-04-25T09:01:34;71.04;49.96;87.47;;
52872;Laerm;40124;52.198;9.902;2023-04-25T09:04:00;68.76;47.19;82.35;;
52872;Laerm;40124;52.198;9.902;2023-04-25T09:06:25;65.24;42.76;81.74;;
52872;Laerm;40124;52.198;9.902;2023-04-25T09:08:51;73.29;47.20;88.96;;
52872;Laerm;40124;52.198;9.902;2023-04-25T09:11:16;69.98;44.35;85.42;;
52872;Laerm;40124;52.198;9.902;2023-04-25T09:13:42;67.26;41.89;82.21;;
52872;Laerm;40124;52.198;9.902;2023-04-25T09:16:07;69.59;49.63;82.82;;
52872;Laerm;40124;52.198;9.902;2023-04-25T09:18:32;68.18;45.14;82.03;;
52872;Laerm;40124;52.198;9.902;2023-04-25T09:21:05;69.16;46.69;81.82;;
52872;Laerm;40124;52.198;9.902;2023-04-25T09:23:31;67.74;43.09;81.17;;
52872;Laerm;40124;52.198;9.902;2023-04-25T09:26:03;66.82;46.84;81.63;;
52872;Laerm;40124;52.198;9.902;2023-04-25T09:28:28;69.22;42.29;84.89;;
52872;Laerm;40124;52.198;9.902;2023-04-25T09:30:57;70.02;46.78;83.94;;
52872;Laerm;40124;52.198;9.902;2023-04-25T09:33:26;70.30;44.76;88.99;;
52872;Laerm;40124;52.198;9.902;2023-04-25T09:35:52;65.50;42.71;82.79;;
52872;Laerm;40124;52.198;9.902;2023-04-25T09:38:20;76.14;49.10;90.88;;
52872;Laerm;40124;52.198;9.902;2023-04-25T09:40:46;69.90;49.04;85.27;;
52872;Laerm;40124;52.198;9.902;2023-04-25T09:43:21;72.25;48.67;85.19;;
52872;Laerm;40124;52.198;9.902;2023-04-25T09:45:47;68.04;44.51;80.19;;
52872;Laerm;40124;52.198;9.902;2023-04-25T09:48:17;69.55;47.98;84.49;;
52872;Laerm;40124;52.198;9.902;2023-04-25T09:50:42;66.42;44.58;78.29;;
52872;Laerm;40124;52.198;9.902;2023-04-25T09:53:07;66.23;45.20;78.47;;
52872;Laerm;40124;52.198;9.902;2023-04-25T09:55:35;71.38;46.84;85.74;;
52872;Laerm;40124;52.198;9.902;2023-04-25T09:58:03;68.35;41.89;79.96;;
52872;Laerm;40124;52.198;9.902;2023-04-25T10:00:29;67.06;44.90;79.24;;
52872;Laerm;40124;52.198;9.902;2023-04-25T10:02:55;71.50;47.63;86.62;;
52872;Laerm;40124;52.198;9.902;2023-04-25T10:05:22;71.27;48.52;87.02;;
52872;Laerm;40124;52.198;9.902;2023-04-25T10:07:49;68.11;46.15;79.67;;
52872;Laerm;40124;52.198;9.902;2023-04-25T10:10:15;70.36;43.90;83.58;;
52872;Laerm;40124;52.198;9.902;2023-04-25T10:12:41;69.68;47.04;84.60;;
52872;Laerm;40124;52.198;9.902;2023-04-25T10:15:08;70.15;43.94;86.22;;
52872;Laerm;40124;52.198;9.902;2023-04-25T10:17:33;71.03;47.14;87.96;;
52872;Laerm;40124;52.198;9.902;2023-04-25T10:20:01;73.15;53.29;87.43;;
52872;Laerm;40124;52.198;9.902;2023-04-25T10:22:32;69.91;43.28;85.48;;
52872;Laerm;40124;52.198;9.902;2023-04-25T10:24:59;64.43;43.04;77.32;;
52872;Laerm;40124;52.198;9.902;2023-04-25T10:27:27;72.31;47.22;83.43;;
52872;Laerm;40124;52.198;9.902;2023-04-25T10:30:05;67.13;42.71;84.49;;
52872;Laerm;40124;52.198;9.902;2023-04-25T10:32:33;71.29;46.97;87.32;;
52872;Laerm;40124;52.198;9.902;2023-04-25T10:35:12;69.30;41.30;83.62;;
52872;Laerm;40124;52.198;9.902;2023-04-25T10:37:37;68.50;43.81;79.85;;
52872;Laerm;40124;52.198;9.902;2023-04-25T10:40:09;71.85;48.49;83.73;;
52872;Laerm;40124;52.198;9.902;2023-04-25T10:42:35;70.62;42.16;86.12;;
52872;Laerm;40124;52.198;9.902;2023-04-25T10:45:01;73.75;51.18;86.92;;
52872;Laerm;40124;52.198;9.902;2023-04-25T10:47:34;68.45;44.31;83.04;;
52872;Laerm;40124;52.198;9.902;2023-04-25T10:50:04;67.45;43.68;81.00;;
52872;Laerm;40124;52.198;9.902;2023-04-25T10:52:29;72.32;51.23;85.97;;
52872;Laerm;40124;52.198;9.902;2023-04-25T10:54:57;71.60;48.63;87.15;;
52872;Laerm;40124;52.198;9.902;2023-04-25T10:57:29;70.00;51.08;83.73;;
52872;Laerm;40124;52.198;9.902;2023-04-25T10:59:58;72.00;47.44;86.27;;
52872;Laerm;40124;52.198;9.902;2023-04-25T11:02:25;69.76;41.30;88.07;;
52872;Laerm;40124;52.198;9.902;2023-04-25T11:04:51;71.39;50.87;87.80;;
52872;Laerm;40124;52.198;9.902;2023-04-25T11:07:22;70.46;49.19;87.80;;
52872;Laerm;40124;52.198;9.902;2023-04-25T11:09:48;72.09;51.43;87.14;;
52872;Laerm;40124;52.198;9.902;2023-04-25T11:12:14;69.21;44.65;80.87;;
52872;Laerm;40124;52.198;9.902;2023-04-25T11:14:40;68.97;44.54;84.14;;
52872;Laerm;40124;52.198;9.902;2023-04-25T11:17:05;66.02;43.97;79.80;;
52872;Laerm;40124;52.198;9.902;2023-04-25T11:19:31;69.46;48.98;79.23;;
52872;Laerm;40124;52.198;9.902;2023-04-25T11:21:57;68.85;43.89;82.80;;
52872;Laerm;40124;52.198;9.902;2023-04-25T11:24:32;70.93;46.52;81.63;;
52872;Laerm;40124;52.198;9.902;2023-04-25T11:26:57;71.05;46.13;85.51;;
52872;Laerm;40124;52.198;9.902;2023-04-25T11:29:23;70.23;43.77;85.78;;
52872;Laerm;40124;52.198;9.902;2023-04-25T11:31:48;71.52;48.32;85.72;;
52872;Laerm;40124;52.198;9.902;2023-04-25T11:34:17;68.95;47.54;81.54;;
52872;Laerm;40124;52.198;9.902;2023-04-25T11:36:42;71.22;45.45;82.45;;
52872;Laerm;40124;52.198;9.902;2023-04-25T11:39:07;71.87;48.92;84.78;;
52872;Laerm;40124;52.198;9.902;2023-04-25T11:41:33;71.41;44.19;85.94;;
52872;Laerm;40124;52.198;9.902;2023-04-25T11:43:58;71.65;45.30;86.68;;
52872;Laerm;40124;52.198;9.902;2023-04-25T11:46:23;72.58;47.91;86.16;;
52872;Laerm;40124;52.198;9.902;2023-04-25T11:48:48;71.21;50.26;82.91;;
52872;Laerm;40124;52.198;9.902;2023-04-25T11:51:15;76.54;43.77;96.61;;
52872;Laerm;40124;52.198;9.902;2023-04-25T11:53:40;70.71;46.45;81.34;;
52872;Laerm;40124;52.198;9.902;2023-04-25T11:56:09;71.08;43.99;90.64;;
52872;Laerm;40124;52.198;9.902;2023-04-25T11:58:53;69.55;44.90;80.08;;
52872;Laerm;40124;52.198;9.902;2023-04-25T12:01:28;69.87;47.14;79.60;;
52872;Laerm;40124;52.198;9.902;2023-04-25T12:03:53;71.52;45.36;82.11;;
52872;Laerm;40124;52.198;9.902;2023-04-25T12:06:18;72.06;45.54;86.82;;
52872;Laerm;40124;52.198;9.902;2023-04-25T12:09:02;68.44;46.71;80.18;;
52872;Laerm;40124;52.198;9.902;2023-04-25T12:11:29;72.94;50.15;86.93;;
52872;Laerm;40124;52.198;9.902;2023-04-25T12:13:54;71.92;53.58;85.88;;
52872;Laerm;40124;52.198;9.902;2023-04-25T12:16:19;71.93;48.10;89.33;;
52872;Laerm;40124;52.198;9.902;2023-04-25T12:18:44;72.20;50.56;89.36;;
52872;Laerm;40124;52.198;9.902;2023-04-25T12:21:10;72.53;45.48;87.32;;
52872;Laerm;40124;52.198;9.902;2023-04-25T12:23:35;73.04;57.04;83.13;;
52872;Laerm;40124;52.198;9.902;2023-04-25T12:26:03;71.24;48.78;84.87;;
52872;Laerm;40124;52.198;9.902;2023-04-25T12:28:28;72.88;49.35;83.36;;
52872;Laerm;40124;52.198;9.902;2023-04-25T12:31:00;73.29;44.12;89.14;;
52872;Laerm;40124;52.198;9.902;2023-04-25T12:33:27;72.79;45.83;87.29;;
52872;Laerm;40124;52.198;9.902;2023-04-25T12:35:53;72.72;49.36;83.19;;
52872;Laerm;40124;52.198;9.902;2023-04-25T12:38:22;71.53;43.72;84.55;;
52872;Laerm;40124;52.198;9.902;2023-04-25T12:40:47;73.30;46.06;88.28;;
52872;Laerm;40124;52.198;9.902;2023-04-25T12:43:12;72.83;50.48;87.93;;
52872;Laerm;40124;52.198;9.902;2023-04-25T12:45:37;71.32;44.87;84.27;;
52872;Laerm;40124;52.198;9.902;2023-04-25T12:48:03;73.62;54.28;84.89;;
52872;Laerm;40124;52.198;9.902;2023-04-25T12:50:28;70.45;46.20;80.49;;
52872;Laerm;40124;52.198;9.902;2023-04-25T12:52:53;70.88;44.07;81.26;;
52872;Laerm;40124;52.198;9.902;2023-04-25T12:55:19;71.06;48.03;91.53;;
52872;Laerm;40124;52.198;9.902;2023-04-25T12:57:44;71.20;48.02;80.95;;
52872;Laerm;40124;52.198;9.902;2023-04-25T13:00:09;73.97;49.46;88.90;;
52872;Laerm;40124;52.198;9.902;2023-04-25T13:02:35;71.83;45.77;82.94;;
52872;Laerm;40124;52.198;9.902;2023-04-25T13:05:00;71.16;48.67;81.69;;
52872;Laerm;40124;52.198;9.902;2023-04-25T13:07:25;72.65;49.33;88.06;;
52872;Laerm;40124;52.198;9.902;2023-04-25T13:09:50;70.51;49.25;81.50;;
52872;Laerm;40124;52.198;9.902;2023-04-25T13:12:15;73.34;43.90;90.58;;
52872;Laerm;40124;52.198;9.902;2023-04-25T13:14:41;71.26;45.42;81.07;;
52872;Laerm;40124;52.198;9.902;2023-04-25T13:17:06;71.51;50.85;83.29;;
52872;Laerm;40124;52.198;9.902;2023-04-25T13:19:31;71.88;51.73;82.61;;
52872;Laerm;40124;52.198;9.902;2023-04-25T13:21:56;74.46;54.95;87.27;;
52872;Laerm;40124;52.198;9.902;2023-04-25T13:24:21;69.26;45.63;80.96;;
52872;Laerm;40124;52.198;9.902;2023-04-25T13:26:46;73.29;48.81;89.61;;
52872;Laerm;40124;52.198;9.902;2023-04-25T13:29:12;69.54;51.71;79.83;;
52872;Laerm;40124;52.198;9.902;2023-04-25T13:31:37;72.61;51.19;86.40;;
52872;Laerm;40124;52.198;9.902;2023-04-25T13:34:02;71.20;51.68;84.01;;
52872;Laerm;40124;52.198;9.902;2023-04-25T13:36:27;72.27;47.61;81.26;;